EGUW - Wattisham
Distance from station: E 5mi, 14km
Updated: 07/22/2018 4:50pm
Haze, Clear
Haze, Clear
 Wind from SE
Wind: SE 6 mph , 9 km/h
Temperature: 63°F , 17°C
Dew Point: 59°F , 15°C
Humidity: 88%
Barometer: 30 inHg , 1016 hPa
Summary: Haze
Clouds: Clear
Visibility: 3 miles , 5 km
2018/07/22 23:50 EGUW 222350Z AUTO 14005KT 5000 HZ NCD 17/15 Q1016